« Back
NWS Peachtree City, Ga » Text Product » AHN Terminal Aerodrome Forecast


Printer-friendly Version
Current Version              Previous Versions:   1  2  3  4  5  6  7  8  9  

Terminal Aerodrome Forecast

822
FTUS42 KFFC 242328
TAFAHN
TAF
KAHN 242328Z 2500/2524 19004KT P6SM FEW080 BKN120
     FM250600 16003KT P6SM VCSH BKN050
     FM250900 VRB03KT 5SM -RA BR SCT010 OVC025
      TEMPO 2512/2516 2SM SHRA BR BKN010
     FM251700 22007KT P6SM VCSH SCT020 BKN040 PROB30 2520/2524
      VRB15G25KT 2SM TSRA BR BKN015CB=



USA.gov is the U.S. government's official web portal to all federal, state and local government web resources and services.